createdAt,value
2024-03-05T00:00:36.924Z,5.55
2024-03-05T00:03:03.934Z,5.88
2024-03-05T00:05:30.975Z,5.55
2024-03-05T00:07:57.783Z,5.80
2024-03-05T00:10:25.453Z,5.85
2024-03-05T00:12:52.155Z,5.75
2024-03-05T00:15:18.886Z,5.85
2024-03-05T00:17:45.686Z,6.35
2024-03-05T00:20:19.915Z,5.32
2024-03-05T00:22:48.102Z,5.85
2024-03-05T00:25:15.396Z,5.82
2024-03-05T00:27:42.192Z,5.50
2024-03-05T00:30:10.460Z,5.47
2024-03-05T00:32:38.807Z,5.63
2024-03-05T00:35:08.931Z,5.70
2024-03-05T00:37:39.374Z,5.35
2024-03-05T00:40:09.879Z,6.05
2024-03-05T00:42:36.778Z,5.47
2024-03-05T00:45:03.764Z,5.93
2024-03-05T00:47:31.343Z,5.93
2024-03-05T00:49:58.109Z,5.55
2024-03-05T00:52:25.587Z,5.38
2024-03-05T00:54:52.457Z,5.88
2024-03-05T00:57:19.120Z,5.57
2024-03-05T00:59:47.891Z,5.82
2024-03-05T01:02:16.347Z,5.45
2024-03-05T01:04:43.248Z,5.43
2024-03-05T01:07:10.898Z,5.78
2024-03-05T01:09:37.571Z,4.85
2024-03-05T01:12:04.321Z,5.85
2024-03-05T01:14:31.765Z,5.43
2024-03-05T01:16:58.442Z,5.10
2024-03-05T01:19:25.096Z,5.45
2024-03-05T01:21:51.816Z,5.68
2024-03-05T01:24:18.437Z,6.13
2024-03-05T01:26:45.049Z,5.57
2024-03-05T01:29:14.005Z,5.30
2024-03-05T01:31:40.854Z,5.30
2024-03-05T01:34:08.186Z,5.57
2024-03-05T01:36:34.967Z,5.65
2024-03-05T01:39:01.653Z,5.75
2024-03-05T01:41:28.312Z,5.13
2024-03-05T01:43:55.053Z,5.60
2024-03-05T01:46:21.715Z,5.50
2024-03-05T01:48:48.744Z,5.80
2024-03-05T01:51:17.791Z,5.85
2024-03-05T01:53:45.373Z,5.40
2024-03-05T01:56:12.999Z,5.60
2024-03-05T01:58:40.458Z,5.43
2024-03-05T02:01:08.136Z,5.60
2024-03-05T02:03:36.858Z,5.70
2024-03-05T02:06:04.546Z,5.80
2024-03-05T02:08:31.262Z,5.60
2024-03-05T02:10:58.298Z,5.57
2024-03-05T02:13:26.168Z,5.95
2024-03-05T02:15:52.876Z,5.50
2024-03-05T02:18:19.515Z,5.80
2024-03-05T02:20:46.187Z,5.03
2024-03-05T02:23:13.265Z,5.50
2024-03-05T02:25:40.594Z,5.50
2024-03-05T02:28:08.887Z,5.80
2024-03-05T02:30:36.384Z,5.60
2024-03-05T02:33:03.433Z,6.07
2024-03-05T02:35:30.104Z,5.70
2024-03-05T02:37:56.793Z,5.47
2024-03-05T02:40:23.589Z,5.15
2024-03-05T02:42:50.636Z,5.65
2024-03-05T02:45:17.264Z,5.68
2024-03-05T02:47:44.169Z,5.78
2024-03-05T02:50:11.929Z,5.93
2024-03-05T02:52:40.169Z,5.28
2024-03-05T02:55:11.019Z,4.85
2024-03-05T02:57:45.420Z,5.78
2024-03-05T03:00:22.045Z,5.65
2024-03-05T03:02:52.407Z,5.75
2024-03-05T03:05:22.828Z,5.45
2024-03-05T03:07:50.054Z,5.53
2024-03-05T03:10:16.880Z,5.63
2024-03-05T03:12:43.870Z,5.35
2024-03-05T03:15:10.843Z,5.50
2024-03-05T03:17:43.797Z,5.78
2024-03-05T03:20:11.042Z,5.40
2024-03-05T03:22:37.925Z,5.63
2024-03-05T03:25:05.654Z,5.93
2024-03-05T03:27:32.400Z,5.30
2024-03-05T03:30:01.819Z,5.45
2024-03-05T03:32:29.193Z,5.47
2024-03-05T03:34:56.131Z,5.80
2024-03-05T03:37:23.308Z,5.57
2024-03-05T03:39:49.957Z,5.85
2024-03-05T03:42:17.358Z,5.90
2024-03-05T03:44:43.996Z,5.13
2024-03-05T03:47:10.630Z,5.78
2024-03-05T03:49:37.578Z,5.80
2024-03-05T03:52:04.447Z,5.72
2024-03-05T03:54:31.153Z,5.95
2024-03-05T03:56:57.762Z,5.38
2024-03-05T03:59:24.385Z,6.15
2024-03-05T04:01:52.272Z,5.65
2024-03-05T04:04:19.181Z,5.93
2024-03-05T04:06:49.282Z,5.85
2024-03-05T04:09:16.108Z,5.40
2024-03-05T04:11:43.699Z,5.70
2024-03-05T04:14:10.784Z,6.05
2024-03-05T04:16:41.156Z,5.93
2024-03-05T04:19:11.005Z,5.90
2024-03-05T04:21:44.449Z,5.93
2024-03-05T04:26:42.908Z,6.10
2024-03-05T04:29:10.433Z,5.88
2024-03-05T04:31:46.991Z,5.93
2024-03-05T04:34:20.397Z,6.00
2024-03-05T04:36:47.199Z,5.88
2024-03-05T04:39:16.766Z,5.78
2024-03-05T04:41:46.455Z,5.30
2024-03-05T04:44:13.122Z,5.65
2024-03-05T04:46:39.853Z,5.60
2024-03-05T04:49:07.562Z,5.60
2024-03-05T04:51:34.298Z,5.88
2024-03-05T04:54:00.950Z,5.35
2024-03-05T04:56:27.887Z,5.72
2024-03-05T04:58:54.687Z,5.97
2024-03-05T05:01:21.548Z,5.45
2024-03-05T05:03:48.354Z,5.88
2024-03-05T05:06:16.688Z,5.65
2024-03-05T05:08:43.653Z,5.97
2024-03-05T05:11:10.403Z,6.00
2024-03-05T05:13:37.156Z,5.75
2024-03-05T05:16:04.025Z,6.07
2024-03-05T05:18:30.686Z,5.63
2024-03-05T05:20:57.332Z,5.72
2024-03-05T05:23:23.962Z,6.32
2024-03-05T05:25:50.640Z,6.32
2024-03-05T05:28:17.334Z,5.85
2024-03-05T05:30:45.063Z,5.32
2024-03-05T05:33:11.752Z,5.85
2024-03-05T05:35:38.807Z,5.85
2024-03-05T05:38:05.714Z,5.72
2024-03-05T05:40:32.463Z,6.05
2024-03-05T05:42:59.825Z,6.10
2024-03-05T05:45:26.564Z,6.30
2024-03-05T05:47:54.943Z,5.20
2024-03-05T05:50:23.994Z,6.55
2024-03-05T05:52:55.760Z,5.85
2024-03-05T05:55:26.522Z,5.97
2024-03-05T05:57:54.392Z,6.63
2024-03-05T06:00:26.120Z,6.32
2024-03-05T06:02:56.334Z,5.95
2024-03-05T06:05:28.609Z,6.35
2024-03-05T06:07:55.443Z,6.10
2024-03-05T06:10:23.533Z,6.65
2024-03-05T06:12:50.335Z,6.47
2024-03-05T06:15:20.344Z,6.93
2024-03-05T06:17:47.354Z,6.55
2024-03-05T06:20:15.413Z,7.47
2024-03-05T06:22:45.958Z,6.78
2024-03-05T06:25:19.406Z,6.50
2024-03-05T06:27:46.876Z,6.57
2024-03-05T06:30:16.589Z,7.15
2024-03-05T06:32:49.717Z,6.68
2024-03-05T06:35:17.990Z,6.68
2024-03-05T06:37:46.386Z,6.20
2024-03-05T06:40:14.165Z,7.00
2024-03-05T06:42:53.068Z,6.65
2024-03-05T06:45:28.402Z,7.20
2024-03-05T06:48:10.961Z,6.72
2024-03-05T06:50:43.444Z,6.65
2024-03-05T06:53:30.217Z,6.78
2024-03-05T06:56:16.552Z,7.57
2024-03-05T06:58:45.790Z,6.90
2024-03-05T07:01:14.770Z,6.93
2024-03-05T07:03:42.865Z,6.80
2024-03-05T07:06:11.308Z,7.47
2024-03-05T07:08:39.954Z,7.07
2024-03-05T07:11:11.397Z,7.15
2024-03-05T07:13:44.618Z,7.07
2024-03-05T07:16:17.426Z,6.78
2024-03-05T07:18:44.959Z,7.40
2024-03-05T07:21:12.334Z,7.28
2024-03-05T07:23:41.183Z,7.25
2024-03-05T07:26:08.274Z,7.53
2024-03-05T07:28:35.331Z,9.25
2024-03-05T07:31:03.198Z,8.55
2024-03-05T07:33:32.255Z,9.45
2024-03-05T07:35:59.021Z,9.30
2024-03-05T07:38:25.752Z,8.25
2024-03-05T07:40:52.718Z,7.88
2024-03-05T07:43:19.539Z,8.70
2024-03-05T07:45:48.815Z,9.10
2024-03-05T07:48:17.203Z,8.07
2024-03-05T07:50:45.104Z,8.93
2024-03-05T07:53:12.070Z,8.65
2024-03-05T07:55:46.510Z,8.40
2024-03-05T07:58:14.640Z,8.55
2024-03-05T08:00:41.820Z,8.43
2024-03-05T08:03:08.702Z,7.65
2024-03-05T08:05:38.416Z,8.40
2024-03-05T08:08:05.573Z,8.57
2024-03-05T08:10:35.359Z,8.45
2024-03-05T08:13:03.131Z,8.38
2024-03-05T08:15:29.944Z,8.18
2024-03-05T08:17:57.865Z,8.40
2024-03-05T08:20:26.948Z,8.38
2024-03-05T08:22:55.503Z,8.60
2024-03-05T08:25:22.785Z,8.13
2024-03-05T08:27:58.065Z,8.32
2024-03-05T08:30:27.089Z,8.25
2024-03-05T08:32:54.221Z,7.88
2024-03-05T08:35:21.160Z,8.38
2024-03-05T08:37:49.250Z,8.23
2024-03-05T08:40:25.446Z,7.95
2024-03-05T08:42:55.476Z,8.02
2024-03-05T08:45:23.802Z,7.70
2024-03-05T08:47:55.015Z,8.00
2024-03-05T08:50:22.484Z,7.97
2024-03-05T08:52:49.944Z,8.05
2024-03-05T08:55:19.014Z,8.52
2024-03-05T08:57:46.516Z,7.95
2024-03-05T09:00:31.810Z,8.45
2024-03-05T09:03:07.268Z,7.97
2024-03-05T09:05:34.086Z,7.70
2024-03-05T09:08:00.899Z,8.50
2024-03-05T09:10:27.698Z,8.50
2024-03-05T09:12:54.377Z,7.85
2024-03-05T09:15:21.041Z,7.68
2024-03-05T09:17:47.969Z,8.20
2024-03-05T09:20:17.470Z,8.25
2024-03-05T09:22:46.193Z,8.50
2024-03-05T09:25:17.260Z,8.00
2024-03-05T09:27:46.532Z,7.88
2024-03-05T09:30:16.622Z,7.40
2024-03-05T09:32:44.850Z,7.68
2024-03-05T09:35:14.119Z,8.00
2024-03-05T09:37:41.611Z,7.60
2024-03-05T09:40:12.581Z,8.40
2024-03-05T09:42:41.840Z,7.70
2024-03-05T09:45:10.444Z,7.57
2024-03-05T09:47:38.753Z,7.70
2024-03-05T09:50:06.276Z,8.00
2024-03-05T09:52:34.763Z,8.25
2024-03-05T09:55:02.360Z,7.32
2024-03-05T09:57:30.268Z,7.05
2024-03-05T09:59:57.397Z,7.60
2024-03-05T10:02:26.662Z,7.97
2024-03-05T10:05:00.393Z,7.70
2024-03-05T10:07:28.036Z,7.13
2024-03-05T10:10:08.704Z,7.35
2024-03-05T10:12:35.722Z,7.60
2024-03-05T10:15:24.207Z,8.48
2024-03-05T10:17:54.188Z,7.30
2024-03-05T10:20:28.412Z,8.25
2024-03-05T10:23:01.798Z,7.28
2024-03-05T10:25:29.627Z,6.90
2024-03-05T10:27:57.215Z,7.95
2024-03-05T10:30:36.023Z,7.55
2024-03-05T10:33:11.158Z,7.30
2024-03-05T10:35:39.337Z,7.25
2024-03-05T10:38:11.397Z,7.40
2024-03-05T10:40:39.403Z,7.78
2024-03-05T10:43:09.881Z,7.43
2024-03-05T10:45:42.201Z,7.00
2024-03-05T10:48:11.241Z,6.93
2024-03-05T10:50:40.897Z,7.30
2024-03-05T10:53:08.860Z,7.65
2024-03-05T10:55:38.102Z,7.35
2024-03-05T10:58:11.314Z,7.07
2024-03-05T11:00:39.092Z,7.80
2024-03-05T11:03:18.625Z,6.93
2024-03-05T11:05:53.099Z,7.32
2024-03-05T11:08:27.663Z,7.10
2024-03-05T11:11:03.408Z,6.85
2024-03-05T11:13:32.628Z,6.85
2024-03-05T11:16:01.507Z,6.97
2024-03-05T11:18:29.886Z,7.35
2024-03-05T11:20:56.738Z,7.45
2024-03-05T11:23:27.956Z,7.18
2024-03-05T11:25:59.368Z,6.45
2024-03-05T11:28:26.320Z,6.60
2024-03-05T11:31:20.185Z,6.55
2024-03-05T11:33:58.624Z,6.28
2024-03-05T11:36:25.676Z,6.35
2024-03-05T11:39:16.182Z,6.93
2024-03-05T11:41:43.862Z,6.82
2024-03-05T11:44:15.185Z,6.60
2024-03-05T11:46:49.975Z,6.43
2024-03-05T11:49:17.711Z,6.45
2024-03-05T11:51:46.598Z,6.18
2024-03-05T11:54:20.007Z,6.00
2024-03-05T11:56:57.537Z,6.72
2024-03-05T11:59:44.442Z,6.45
2024-03-05T12:02:16.528Z,6.25
2024-03-05T12:04:49.984Z,5.82
2024-03-05T12:07:17.703Z,5.85
2024-03-05T12:09:45.341Z,6.43
2024-03-05T12:12:14.444Z,6.15
2024-03-05T12:14:50.415Z,5.63
2024-03-05T12:17:19.631Z,6.10
2024-03-05T12:19:58.177Z,5.90
2024-03-05T12:22:25.213Z,5.75
2024-03-05T12:24:52.258Z,5.60
2024-03-05T12:27:18.911Z,5.20
2024-03-05T12:29:45.640Z,6.10
2024-03-05T12:32:13.816Z,5.80
2024-03-05T12:34:44.290Z,5.60
2024-03-05T12:37:12.115Z,5.38
2024-03-05T12:39:41.120Z,5.30
2024-03-05T12:42:10.997Z,6.13
2024-03-05T12:44:37.775Z,5.68
2024-03-05T12:47:17.384Z,5.22
2024-03-05T12:49:47.207Z,5.28
2024-03-05T12:52:24.130Z,5.68
2024-03-05T12:55:03.240Z,5.63
2024-03-05T12:57:31.372Z,4.80
2024-03-05T13:00:02.210Z,5.22
2024-03-05T13:02:29.539Z,5.28
2024-03-05T13:04:58.976Z,5.60
2024-03-05T13:07:26.802Z,5.65
2024-03-05T13:09:55.462Z,5.32
2024-03-05T13:12:22.144Z,5.50
2024-03-05T13:14:48.786Z,4.88
2024-03-05T13:17:15.551Z,5.20
2024-03-05T13:19:42.475Z,4.95
2024-03-05T13:22:09.436Z,4.75
2024-03-05T13:24:36.098Z,5.07
2024-03-05T13:27:04.926Z,5.22
2024-03-05T13:29:31.635Z,5.07
2024-03-05T13:32:00.454Z,5.10
2024-03-05T13:34:28.429Z,4.82
2024-03-05T13:36:55.420Z,4.88
2024-03-05T13:39:23.783Z,4.90
2024-03-05T13:41:54.720Z,5.30
2024-03-05T13:44:23.829Z,5.10
2024-03-05T13:46:54.534Z,5.05
2024-03-05T13:49:22.071Z,5.15
2024-03-05T13:51:49.046Z,4.72
2024-03-05T13:54:15.821Z,4.53
2024-03-05T13:56:44.541Z,5.10
2024-03-05T13:59:12.400Z,5.00
2024-03-05T14:01:39.738Z,4.13
2024-03-05T14:04:13.168Z,4.43
2024-03-05T14:06:40.057Z,5.00
2024-03-05T14:09:10.296Z,5.00
2024-03-05T14:11:37.849Z,4.82
2024-03-05T14:14:04.856Z,4.97
2024-03-05T14:16:32.698Z,4.75
2024-03-05T14:19:00.031Z,4.88
2024-03-05T14:21:30.753Z,4.53
2024-03-05T14:23:58.651Z,4.95
2024-03-05T14:26:25.601Z,4.68
2024-03-05T14:28:52.544Z,4.78
2024-03-05T14:31:19.692Z,4.28
2024-03-05T14:33:46.688Z,4.90
2024-03-05T14:36:15.242Z,4.72
2024-03-05T14:38:43.741Z,4.55
2024-03-05T14:41:11.211Z,4.68
2024-03-05T14:43:38.298Z,4.53
2024-03-05T14:46:06.641Z,4.55
2024-03-05T14:48:34.314Z,4.78
2024-03-05T14:51:01.764Z,4.90
2024-03-05T14:53:28.651Z,4.55
2024-03-05T14:55:55.515Z,4.65
2024-03-05T14:58:22.447Z,5.53
2024-03-05T15:00:49.189Z,4.80
2024-03-05T15:03:19.349Z,4.45
2024-03-05T15:05:46.933Z,4.82
2024-03-05T15:08:14.540Z,5.03
2024-03-05T15:10:41.509Z,5.88
2024-03-05T15:13:09.594Z,5.07
2024-03-05T15:15:37.628Z,4.88
2024-03-05T15:18:06.705Z,5.30
2024-03-05T15:20:34.488Z,5.40
2024-03-05T15:23:01.483Z,5.00
2024-03-05T15:25:28.536Z,5.30
2024-03-05T15:28:02.055Z,4.78
2024-03-05T15:30:35.101Z,5.20
2024-03-05T15:33:03.238Z,5.30
2024-03-05T15:35:30.414Z,4.90
2024-03-05T15:37:58.876Z,4.88
2024-03-05T15:40:26.220Z,5.03
2024-03-05T15:42:54.428Z,4.72
2024-03-05T15:45:31.316Z,5.35
2024-03-05T15:47:59.710Z,4.95
2024-03-05T15:50:30.963Z,5.13
2024-03-05T15:53:00.907Z,5.35
2024-03-05T15:55:31.497Z,5.20
2024-03-05T15:58:02.087Z,5.47
2024-03-05T16:00:39.450Z,5.45
2024-03-05T16:03:07.651Z,5.05
2024-03-05T16:06:04.037Z,4.90
2024-03-05T16:08:36.472Z,5.30
2024-03-05T16:11:03.679Z,5.43
2024-03-05T16:13:31.237Z,5.38
2024-03-05T16:15:58.427Z,5.15
2024-03-05T16:18:25.723Z,5.18
2024-03-05T16:20:53.382Z,5.30
2024-03-05T16:23:20.044Z,5.40
2024-03-05T16:25:46.813Z,4.70
2024-03-05T16:28:22.937Z,4.93
2024-03-05T16:30:49.706Z,5.03
2024-03-05T16:33:16.623Z,5.32
2024-03-05T16:35:44.515Z,5.15
2024-03-05T16:38:15.232Z,5.13
2024-03-05T16:40:42.233Z,5.10
2024-03-05T16:43:11.155Z,5.40
2024-03-05T16:45:38.238Z,5.43
2024-03-05T16:48:06.882Z,5.28
2024-03-05T16:50:34.089Z,5.50
2024-03-05T16:53:02.048Z,5.50
2024-03-05T16:55:28.990Z,5.82
2024-03-05T16:58:11.359Z,5.15
2024-03-05T17:00:56.052Z,5.32
2024-03-05T17:03:25.519Z,5.28
2024-03-05T17:05:54.101Z,4.90
2024-03-05T17:08:21.648Z,4.93
2024-03-05T17:10:49.741Z,5.13
2024-03-05T17:13:20.577Z,5.50
2024-03-05T17:15:54.513Z,5.63
2024-03-05T17:18:25.098Z,5.00
2024-03-05T17:20:52.357Z,5.78
2024-03-05T17:23:23.331Z,5.18
2024-03-05T17:25:52.765Z,5.25
2024-03-05T17:28:19.574Z,5.55
2024-03-05T17:30:46.462Z,5.22
2024-03-05T17:33:15.455Z,5.30
2024-03-05T17:35:43.800Z,5.05
2024-03-05T17:38:14.139Z,5.35
2024-03-05T17:40:41.419Z,5.57
2024-03-05T17:43:08.381Z,5.30
2024-03-05T17:45:35.060Z,5.45
2024-03-05T17:48:07.025Z,5.35
2024-03-05T17:50:35.662Z,5.10
2024-03-05T17:53:05.441Z,5.80
2024-03-05T17:55:32.308Z,5.35
2024-03-05T17:57:59.961Z,5.63
2024-03-05T18:00:37.100Z,5.80
2024-03-05T18:03:05.483Z,5.45
2024-03-05T18:05:32.141Z,5.45
2024-03-05T18:07:59.100Z,4.88
2024-03-05T18:10:26.024Z,5.38
2024-03-05T18:12:53.899Z,5.47
2024-03-05T18:15:21.658Z,5.18
2024-03-05T18:17:50.095Z,5.22
2024-03-05T18:20:17.685Z,6.03
2024-03-05T18:22:45.823Z,5.45
2024-03-05T18:25:20.915Z,5.47
2024-03-05T18:27:49.975Z,5.82
2024-03-05T18:30:20.053Z,5.78
2024-03-05T18:32:48.338Z,5.30
2024-03-05T18:35:17.835Z,5.47
2024-03-05T18:37:45.303Z,4.72
2024-03-05T18:40:14.595Z,5.43
2024-03-05T18:42:46.375Z,5.30
2024-03-05T18:45:16.687Z,5.30
2024-03-05T18:47:58.445Z,4.90
2024-03-05T18:50:30.307Z,5.07
2024-03-05T18:53:02.503Z,5.20
2024-03-05T18:55:31.666Z,4.88
2024-03-05T18:57:58.704Z,4.88
2024-03-05T19:00:26.875Z,5.60
2024-03-05T19:02:53.590Z,5.57
2024-03-05T19:05:22.497Z,5.13
2024-03-05T19:07:50.287Z,5.35
2024-03-05T19:10:19.283Z,5.15
2024-03-05T19:12:47.109Z,5.18
2024-03-05T19:15:14.599Z,5.47
2024-03-05T19:17:42.057Z,4.97
2024-03-05T19:20:11.204Z,5.10
2024-03-05T19:22:39.858Z,5.20
2024-03-05T19:25:12.816Z,5.13
2024-03-05T19:27:41.031Z,4.65
2024-03-05T19:30:11.676Z,5.38
2024-03-05T19:32:43.314Z,5.13
2024-03-05T19:35:12.110Z,5.20
2024-03-05T19:37:41.804Z,4.82
2024-03-05T19:40:09.371Z,4.93
2024-03-05T19:42:36.109Z,4.45
2024-03-05T19:45:02.721Z,4.45
2024-03-05T19:47:30.351Z,4.88
2024-03-05T19:49:57.210Z,4.78
2024-03-05T19:52:24.387Z,4.15
2024-03-05T19:54:51.336Z,4.78
2024-03-05T19:57:19.034Z,4.68
2024-03-05T19:59:45.762Z,4.80
2024-03-05T20:02:12.429Z,4.60
2024-03-05T20:04:39.167Z,4.40
2024-03-05T20:07:06.504Z,4.60
2024-03-05T20:09:33.389Z,4.35
2024-03-05T20:12:00.108Z,4.82
2024-03-05T20:14:26.815Z,4.70
2024-03-05T20:16:53.475Z,4.80
2024-03-05T20:19:21.131Z,4.47
2024-03-05T20:21:51.314Z,4.22
2024-03-05T20:24:17.940Z,4.60
2024-03-05T20:26:46.011Z,4.30
2024-03-05T20:29:12.725Z,4.40
2024-03-05T20:31:39.555Z,4.20
2024-03-05T20:34:06.739Z,4.50
2024-03-05T20:36:34.333Z,4.40
2024-03-05T20:39:01.019Z,4.28
2024-03-05T20:41:27.765Z,4.57
2024-03-05T20:43:54.504Z,4.10
2024-03-05T20:46:21.435Z,4.45
2024-03-05T20:48:48.187Z,4.03
2024-03-05T20:51:14.787Z,4.10
2024-03-05T20:53:43.606Z,4.20
2024-03-05T20:56:10.565Z,4.43
2024-03-05T20:58:38.897Z,3.67
2024-03-05T21:01:07.473Z,4.32
2024-03-05T21:03:34.178Z,3.80
2024-03-05T21:06:00.900Z,4.05
2024-03-05T21:08:28.560Z,3.97
2024-03-05T21:10:55.275Z,4.32
2024-03-05T21:13:26.084Z,4.45
2024-03-05T21:15:53.383Z,3.95
2024-03-05T21:18:20.410Z,3.92
2024-03-05T21:20:47.250Z,4.25
2024-03-05T21:23:16.739Z,4.20
2024-03-05T21:25:56.507Z,4.25
2024-03-05T21:28:31.643Z,4.05
2024-03-05T21:30:58.398Z,4.10
2024-03-05T21:33:25.067Z,4.15
2024-03-05T21:35:52.201Z,4.10
2024-03-05T21:38:19.064Z,3.83
2024-03-05T21:40:46.160Z,3.97
2024-03-05T21:43:12.838Z,4.18
2024-03-05T21:45:39.738Z,3.80
2024-03-05T21:48:06.842Z,4.20
2024-03-05T21:50:34.800Z,4.00
2024-03-05T21:53:01.546Z,3.80
2024-03-05T21:55:28.235Z,4.25
2024-03-05T21:57:54.997Z,3.50
2024-03-05T22:00:23.231Z,4.00
2024-03-05T22:02:50.263Z,3.85
2024-03-05T22:05:17.116Z,3.95
2024-03-05T22:07:43.908Z,4.13
2024-03-05T22:10:10.965Z,3.67
2024-03-05T22:12:41.839Z,3.70
2024-03-05T22:15:10.176Z,4.03
2024-03-05T22:17:37.303Z,3.63
2024-03-05T22:20:06.278Z,3.90
2024-03-05T22:22:32.981Z,4.13
2024-03-05T22:25:00.052Z,3.60
2024-03-05T22:27:26.734Z,3.90
2024-03-05T22:29:53.418Z,3.80
2024-03-05T22:32:20.157Z,3.83
2024-03-05T22:34:46.838Z,3.95
2024-03-05T22:37:13.856Z,3.60
2024-03-05T22:39:40.662Z,4.28
2024-03-05T22:42:07.348Z,3.78
2024-03-05T22:44:34.053Z,3.63
2024-03-05T22:47:00.756Z,3.83
2024-03-05T22:49:28.023Z,4.00
2024-03-05T22:51:54.947Z,3.80
2024-03-05T22:54:21.605Z,4.25
2024-03-05T22:56:51.790Z,3.83
2024-03-05T22:59:20.185Z,3.58
2024-03-05T23:01:47.332Z,3.65
2024-03-05T23:04:13.993Z,3.55
2024-03-05T23:06:40.666Z,3.30
2024-03-05T23:09:08.055Z,3.72
2024-03-05T23:11:34.875Z,3.30
2024-03-05T23:14:01.685Z,3.35
2024-03-05T23:16:28.346Z,3.58
2024-03-05T23:18:54.977Z,3.67
2024-03-05T23:21:21.588Z,3.60
2024-03-05T23:23:50.561Z,3.47
2024-03-05T23:26:19.195Z,3.75
2024-03-05T23:28:45.994Z,3.40
2024-03-05T23:31:12.657Z,3.15
2024-03-05T23:33:39.327Z,3.50
2024-03-05T23:36:06.476Z,3.50
2024-03-05T23:38:33.140Z,3.53
2024-03-05T23:41:00.328Z,3.33
2024-03-05T23:43:26.985Z,3.60
2024-03-05T23:45:55.541Z,3.70
2024-03-05T23:48:22.352Z,3.33
2024-03-05T23:50:49.042Z,3.33
2024-03-05T23:53:16.932Z,3.38
2024-03-05T23:55:44.245Z,3.25
2024-03-05T23:58:10.888Z,3.50
